Golden, Colorado
Current Conditions -  °F | °C
As of 9:48 AM on Sunday 23 Nov 2014 (Local Time) from KBJC Reporting Station
Broken Clouds Broken Clouds  
Wind Chill: 34°   Ceiling: 12000
Heat Index: 39°   Visibility: 30mi
Dew Point: 19°   Wind: 8mph
Humidity: 45%   Direction: 60°ENE
Pressure: 29.8"   Gusts: NA
Location:  39.76°N, 105.22°W
Report Text: KBJC 231648Z 06007KT 30SM FEW080 BKN120 04/M07 A2980
Loading
Personal Weather Stations






























Interactive Weather Map New forecast layout! Learn more

10-Day Weather Forecast

Advertisements
Track Severe Weather on mobile